Time;durP1;ratioP1;P1;durP2;ratioP2;P2;SDS_P1;SDS_P2;PMS_P1;PMS_P2;Temp;Humidity;BMP_temperature;BMP_pressure;BME280_temperature;BME280_humidity;BME280_pressure;Samples;Min_cycle;Max_cycle;Signal;HPM_P1;HPM_P2
2021/10/08 00:01:40;;;;;;;;;;;14.80;99.90;;;;;;5088581;28;19999;-77
2021/10/08 00:04:06;;;;;;;;;;;14.70;99.90;;;;;;5073818;28;20066;-77
2021/10/08 00:06:32;;;;;;;;;;;14.60;99.90;;;;;;5073563;28;19926;-77
2021/10/08 00:08:57;;;;;;;;;;;14.60;99.90;;;;;;5076677;28;20425;-77
2021/10/08 00:11:23;;;;;;;;;;;14.50;99.90;;;;;;5076524;28;19923;-77
2021/10/08 00:13:49;;;;;;;;;;;14.50;99.90;;;;;;5076038;28;19909;-77
2021/10/08 00:16:15;;;;;;;;;;;14.40;99.90;;;;;;5074314;28;20327;-77
2021/10/08 00:18:41;;;;;;;;;;;14.40;99.90;;;;;;5074230;28;19916;-78
2021/10/08 00:21:07;;;;;;;;;;;14.50;99.90;;;;;;5077254;28;20374;-77
2021/10/08 00:23:33;;;;;;;;;;;14.60;99.90;;;;;;5076232;28;19917;-77
2021/10/08 00:25:59;;;;;;;;;;;14.60;99.90;;;;;;5076915;28;19938;-77
2021/10/08 00:28:25;;;;;;;;;;;14.60;99.90;;;;;;5077045;28;19912;-77
2021/10/08 00:30:51;;;;;;;;;;;14.60;99.90;;;;;;5077798;28;20423;-77
2021/10/08 00:33:17;;;;;;;;;;;14.60;99.90;;;;;;5077116;28;19909;-77
2021/10/08 00:35:42;;;;;;;;;;;14.60;99.90;;;;;;5077309;28;20382;-77
2021/10/08 00:38:09;;;;;;;;;;;14.60;99.90;;;;;;5077245;28;19983;-77
2021/10/08 00:40:38;;;;;;;;;;;14.60;99.90;;;;;;5077362;28;19908;-77
2021/10/08 00:43:04;;;;;;;;;;;14.60;99.90;;;;;;5075860;28;19908;-77
2021/10/08 00:45:30;;;;;;;;;;;14.70;99.90;;;;;;5077012;28;19916;-78
2021/10/08 00:48:01;;;;;;;;;;;14.70;99.90;;;;;;5076715;28;19920;-77
2021/10/08 00:50:27;;;;;;;;;;;14.70;99.90;;;;;;5076201;28;19912;-78
2021/10/08 00:52:53;;;;;;;;;;;14.70;99.90;;;;;;5069122;28;19909;-78
2021/10/08 00:55:19;;;;;;;;;;;14.70;99.90;;;;;;5054700;28;19909;-77
2021/10/08 00:57:48;;;;;;;;;;;14.80;99.90;;;;;;5056586;28;20381;-77
2021/10/08 01:00:14;;;;;;;;;;;14.80;99.90;;;;;;5069600;28;19944;-77
2021/10/08 01:02:40;;;;;;;;;;;14.80;99.90;;;;;;5074083;28;19909;-77
2021/10/08 01:05:06;;;;;;;;;;;14.80;99.90;;;;;;5074541;28;19913;-77
2021/10/08 01:07:32;;;;;;;;;;;14.80;99.90;;;;;;5080749;28;19912;-77
2021/10/08 01:09:57;;;;;;;;;;;14.80;99.90;;;;;;5077066;28;19927;-77
2021/10/08 01:12:23;;;;;;;;;;;14.80;99.90;;;;;;5077280;28;20015;-77
2021/10/08 01:14:49;;;;;;;;;;;14.90;99.90;;;;;;5078739;28;19913;-77
2021/10/08 01:17:15;;;;;;;;;;;15.00;99.90;;;;;;5081202;28;20007;-78
2021/10/08 01:19:42;;;;;;;;;;;15.10;99.90;;;;;;5078119;28;19938;-78
2021/10/08 01:22:08;;;;;;;;;;;15.10;99.90;;;;;;5081826;28;19940;-77
2021/10/08 01:24:33;;;;;;;;;;;15.20;99.90;;;;;;5091325;28;20442;-78
2021/10/08 01:27:03;;;;;;;;;;;15.30;99.90;;;;;;5074201;28;19921;-78
2021/10/08 01:29:29;;;;;;;;;;;15.30;99.90;;;;;;5078263;28;19923;-77
2021/10/08 01:31:54;;;;;;;;;;;15.20;99.90;;;;;;5080309;28;19912;-77
2021/10/08 01:34:22;;;;;;;;;;;15.30;99.90;;;;;;5078576;28;20050;-77
2021/10/08 01:36:48;;;;;;;;;;;15.30;99.90;;;;;;5077863;28;19935;-77
2021/10/08 01:39:14;;;;;;;;;;;15.20;99.90;;;;;;5077967;28;19912;-77
2021/10/08 01:41:40;;;;;;;;;;;15.30;99.90;;;;;;5077830;28;19909;-81
2021/10/08 01:44:05;;;;;;;;;;;15.30;99.90;;;;;;5074130;28;19920;-77
2021/10/08 01:46:31;;;;;;;;;;;15.30;99.90;;;;;;5074650;28;19912;-77
2021/10/08 01:48:57;;;;;;;;;;;15.30;99.90;;;;;;5073144;28;20231;-77
2021/10/08 01:51:22;;;;;;;;;;;15.40;99.90;;;;;;5077547;28;20013;-77
2021/10/08 01:53:48;;;;;;;;;;;15.30;99.90;;;;;;5073950;28;19915;-77
2021/10/08 01:56:14;;;;;;;;;;;15.40;99.90;;;;;;5081876;28;19992;-77
2021/10/08 01:58:40;;;;;;;;;;;15.30;99.90;;;;;;5080289;28;19918;-77
2021/10/08 02:01:06;;;;;;;;;;;15.30;99.90;;;;;;5072403;28;19912;-78
2021/10/08 02:03:32;;;;;;;;;;;15.40;99.90;;;;;;5076792;28;19908;-77
2021/10/08 02:05:58;;;;;;;;;;;15.40;99.90;;;;;;5078202;28;19920;-77
2021/10/08 02:08:24;;;;;;;;;;;15.50;99.90;;;;;;5074573;28;19916;-77
2021/10/08 02:10:49;;;;;;;;;;;15.50;99.90;;;;;;5077803;28;19918;-77
2021/10/08 02:13:18;;;;;;;;;;;15.40;99.90;;;;;;5081033;28;19916;-77
2021/10/08 02:15:44;;;;;;;;;;;15.40;99.90;;;;;;5075510;28;19912;-78
2021/10/08 02:18:10;;;;;;;;;;;15.50;99.90;;;;;;5078888;28;19916;-78
2021/10/08 02:20:35;;;;;;;;;;;15.50;99.90;;;;;;5072323;28;20023;-77
2021/10/08 02:23:01;;;;;;;;;;;15.60;99.90;;;;;;5074520;28;19912;-77
2021/10/08 02:25:27;;;;;;;;;;;15.70;99.90;;;;;;5080059;28;19951;-77
2021/10/08 02:27:52;;;;;;;;;;;15.60;99.90;;;;;;5078322;28;19917;-77
2021/10/08 02:30:18;;;;;;;;;;;15.60;99.90;;;;;;5084651;28;19912;-79
2021/10/08 02:32:44;;;;;;;;;;;15.60;99.90;;;;;;5082114;28;20385;-77
2021/10/08 02:35:10;;;;;;;;;;;15.50;99.90;;;;;;5080001;28;19912;-78
2021/10/08 02:37:35;;;;;;;;;;;15.60;99.90;;;;;;5082874;28;19912;-77
2021/10/08 02:40:01;;;;;;;;;;;15.60;99.90;;;;;;5080378;28;19920;-80
2021/10/08 02:42:27;;;;;;;;;;;15.60;99.90;;;;;;5083009;28;19912;-78
2021/10/08 02:44:53;;;;;;;;;;;15.60;99.90;;;;;;5078397;28;19912;-78
2021/10/08 02:47:18;;;;;;;;;;;15.60;99.90;;;;;;5076444;28;19919;-78
2021/10/08 02:49:44;;;;;;;;;;;15.60;99.90;;;;;;5072237;28;20477;-77
2021/10/08 02:52:10;;;;;;;;;;;15.50;99.90;;;;;;5072275;28;19917;-77
2021/10/08 02:54:35;;;;;;;;;;;15.60;99.90;;;;;;5075041;28;19912;-79
2021/10/08 02:57:01;;;;;;;;;;;15.60;99.90;;;;;;5078884;28;19927;-78
2021/10/08 02:59:27;;;;;;;;;;;15.60;99.90;;;;;;5081540;28;19912;-77
2021/10/08 03:01:53;;;;;;;;;;;15.60;99.90;;;;;;5079794;28;19912;-78
2021/10/08 03:04:19;;;;;;;;;;;15.60;99.90;;;;;;5075582;28;19938;-79
2021/10/08 03:06:44;;;;;;;;;;;15.60;99.90;;;;;;5079948;28;20416;-78
2021/10/08 03:09:10;;;;;;;;;;;15.60;99.90;;;;;;5079288;28;19917;-77
2021/10/08 03:11:36;;;;;;;;;;;15.60;99.90;;;;;;5081293;28;19960;-78
2021/10/08 03:14:02;;;;;;;;;;;15.60;99.90;;;;;;5092252;28;20321;-77
2021/10/08 03:16:28;;;;;;;;;;;15.60;99.90;;;;;;5075581;28;20333;-77
2021/10/08 03:18:54;;;;;;;;;;;15.50;99.90;;;;;;5081195;28;19962;-77
2021/10/08 03:21:19;;;;;;;;;;;15.50;99.90;;;;;;5078799;28;19921;-78
2021/10/08 03:23:45;;;;;;;;;;;15.60;99.90;;;;;;5082748;28;19916;-78
2021/10/08 03:26:11;;;;;;;;;;;15.50;99.90;;;;;;5082044;28;20369;-78
2021/10/08 03:28:37;;;;;;;;;;;15.50;99.90;;;;;;5078003;28;19920;-77
2021/10/08 03:31:03;;;;;;;;;;;15.60;99.90;;;;;;5077132;28;19908;-77
2021/10/08 03:33:29;;;;;;;;;;;15.60;99.90;;;;;;5077629;28;19908;-78
2021/10/08 03:35:55;;;;;;;;;;;15.60;99.90;;;;;;5077586;28;19916;-77
2021/10/08 03:38:21;;;;;;;;;;;15.70;99.90;;;;;;5076381;28;20282;-77
2021/10/08 03:43:28;;;;;;;;;;;15.70;99.90;;;;;;5079316;28;19965;-78
2021/10/08 03:45:58;;;;;;;;;;;15.70;99.90;;;;;;5076216;28;20290;-77
2021/10/08 03:51:02;;;;;;;;;;;15.70;99.90;;;;;;5073243;28;19932;-78
2021/10/08 03:53:27;;;;;;;;;;;15.70;99.90;;;;;;5077155;28;19938;-77
2021/10/08 03:55:54;;;;;;;;;;;15.70;99.90;;;;;;5078087;28;19978;-78
2021/10/08 03:58:20;;;;;;;;;;;15.70;99.90;;;;;;5077143;28;19958;-78
2021/10/08 04:00:45;;;;;;;;;;;15.80;99.90;;;;;;5074208;28;20042;-78
2021/10/08 04:03:11;;;;;;;;;;;15.70;99.90;;;;;;5076021;28;20474;-77
2021/10/08 04:05:36;;;;;;;;;;;15.70;99.90;;;;;;5086662;28;19919;-77
2021/10/08 04:08:02;;;;;;;;;;;15.60;99.90;;;;;;5076447;28;19923;-77
2021/10/08 04:10:28;;;;;;;;;;;15.60;99.90;;;;;;5079683;28;19934;-77
2021/10/08 04:12:54;;;;;;;;;;;15.70;99.90;;;;;;5076551;28;19960;-78
2021/10/08 04:15:21;;;;;;;;;;;15.70;99.90;;;;;;5077087;28;19948;-78
2021/10/08 04:17:46;;;;;;;;;;;15.60;99.90;;;;;;5076984;28;20001;-78
2021/10/08 04:20:12;;;;;;;;;;;15.60;99.90;;;;;;5075301;28;19913;-78
2021/10/08 04:22:38;;;;;;;;;;;15.60;99.90;;;;;;5076830;28;19913;-78
2021/10/08 04:25:03;;;;;;;;;;;15.60;99.90;;;;;;5077038;28;20416;-77
2021/10/08 04:27:29;;;;;;;;;;;15.50;99.90;;;;;;5077838;28;19912;-78
2021/10/08 04:29:55;;;;;;;;;;;15.50;99.90;;;;;;5076752;28;19938;-78
2021/10/08 04:32:21;;;;;;;;;;;15.50;99.90;;;;;;5085955;28;20381;-78
2021/10/08 04:34:46;;;;;;;;;;;15.50;99.90;;;;;;5073212;28;19912;-77
2021/10/08 04:37:12;;;;;;;;;;;15.50;99.90;;;;;;5079133;28;19913;-78
2021/10/08 04:39:38;;;;;;;;;;;15.60;99.90;;;;;;5076334;28;20377;-78
2021/10/08 04:42:03;;;;;;;;;;;15.60;99.90;;;;;;5073985;28;19934;-77
2021/10/08 04:44:32;;;;;;;;;;;15.50;99.90;;;;;;5075270;28;20395;-78
2021/10/08 04:46:58;;;;;;;;;;;15.50;99.90;;;;;;5076647;28;19927;-78
2021/10/08 04:49:24;;;;;;;;;;;15.50;99.90;;;;;;5072293;28;20446;-78
2021/10/08 04:51:50;;;;;;;;;;;15.60;99.90;;;;;;5071413;28;19912;-78
2021/10/08 04:54:16;;;;;;;;;;;15.50;99.90;;;;;;5073186;28;20009;-77
2021/10/08 04:56:41;;;;;;;;;;;15.60;99.90;;;;;;5075266;28;19917;-77
2021/10/08 04:59:07;;;;;;;;;;;15.60;99.90;;;;;;5075817;28;19910;-78
2021/10/08 05:01:32;;;;;;;;;;;15.60;99.90;;;;;;5076030;28;20292;-78
2021/10/08 05:03:58;;;;;;;;;;;15.50;99.90;;;;;;5077971;28;19912;-78
2021/10/08 05:06:24;;;;;;;;;;;15.60;99.90;;;;;;5090826;28;20004;-77
2021/10/08 05:08:50;;;;;;;;;;;15.70;99.90;;;;;;5077828;28;19916;-77
2021/10/08 05:11:16;;;;;;;;;;;15.70;99.90;;;;;;5075418;28;19912;-78
2021/10/08 05:13:41;;;;;;;;;;;15.70;99.90;;;;;;5075978;28;19957;-77
2021/10/08 05:16:07;;;;;;;;;;;15.70;99.90;;;;;;5072563;28;19916;-77
2021/10/08 05:18:33;;;;;;;;;;;15.70;99.90;;;;;;5081487;28;19912;-77
2021/10/08 05:20:58;;;;;;;;;;;15.70;99.90;;;;;;5078046;28;19942;-77
2021/10/08 05:23:24;;;;;;;;;;;15.70;99.90;;;;;;5074702;28;19977;-77
2021/10/08 05:25:50;;;;;;;;;;;15.70;99.90;;;;;;5077738;28;19918;-77
2021/10/08 05:28:16;;;;;;;;;;;15.60;99.90;;;;;;5076682;28;19916;-78
2021/10/08 05:30:41;;;;;;;;;;;15.70;99.90;;;;;;5076715;28;19912;-77
2021/10/08 05:33:07;;;;;;;;;;;15.70;99.90;;;;;;5074535;28;19919;-78
2021/10/08 05:35:33;;;;;;;;;;;15.60;99.90;;;;;;5076529;28;19928;-78
2021/10/08 05:37:58;;;;;;;;;;;15.60;99.90;;;;;;5079526;28;19987;-78
2021/10/08 05:40:24;;;;;;;;;;;15.60;99.90;;;;;;5082114;28;19931;-78
2021/10/08 05:42:50;;;;;;;;;;;15.70;99.90;;;;;;5074456;28;19914;-77
2021/10/08 05:45:15;;;;;;;;;;;15.70;99.90;;;;;;5073633;28;19912;-77
2021/10/08 05:47:41;;;;;;;;;;;15.70;99.90;;;;;;5071899;28;19916;-77
2021/10/08 05:50:07;;;;;;;;;;;15.70;99.90;;;;;;5068811;28;19966;-77
2021/10/08 05:52:32;;;;;;;;;;;15.70;99.90;;;;;;5079187;28;19922;-80
2021/10/08 05:54:58;;;;;;;;;;;15.60;99.90;;;;;;5080220;28;19912;-78
2021/10/08 05:57:24;;;;;;;;;;;15.60;99.90;;;;;;5072594;28;19947;-78
2021/10/08 05:59:50;;;;;;;;;;;15.60;99.90;;;;;;5073701;28;19978;-78
2021/10/08 06:02:15;;;;;;;;;;;15.60;99.90;;;;;;5076061;28;19909;-78
2021/10/08 06:04:41;;;;;;;;;;;15.60;99.90;;;;;;5080947;28;20397;-78
2021/10/08 06:07:08;;;;;;;;;;;15.60;99.90;;;;;;5076304;28;20396;-77
2021/10/08 06:09:34;;;;;;;;;;;15.60;99.90;;;;;;5083121;28;19920;-77
2021/10/08 06:12:00;;;;;;;;;;;15.60;99.90;;;;;;5078543;28;19912;-77
2021/10/08 06:14:26;;;;;;;;;;;15.60;99.90;;;;;;5076277;28;19913;-78
2021/10/08 06:16:52;;;;;;;;;;;15.60;99.90;;;;;;5072200;28;19920;-78
2021/10/08 06:19:17;;;;;;;;;;;15.60;99.90;;;;;;5076031;28;19912;-78
2021/10/08 06:21:43;;;;;;;;;;;15.60;99.90;;;;;;5073531;28;19944;-78
2021/10/08 06:24:09;;;;;;;;;;;15.60;99.90;;;;;;5074605;28;20880;-78
2021/10/08 06:26:34;;;;;;;;;;;15.60;99.90;;;;;;5075427;28;20485;-78
2021/10/08 06:29:00;;;;;;;;;;;15.70;99.90;;;;;;5076515;28;19920;-77
2021/10/08 06:31:26;;;;;;;;;;;15.70;99.90;;;;;;5078993;28;19919;-77
2021/10/08 06:33:52;;;;;;;;;;;15.70;99.90;;;;;;5083733;28;19912;-77
2021/10/08 06:36:17;;;;;;;;;;;15.60;99.90;;;;;;5084311;28;19943;-76
2021/10/08 06:38:43;;;;;;;;;;;15.60;99.90;;;;;;5087315;28;19913;-78
2021/10/08 06:41:09;;;;;;;;;;;15.60;99.90;;;;;;5086105;28;19927;-77
2021/10/08 06:43:35;;;;;;;;;;;15.60;99.90;;;;;;5085374;28;19970;-77
2021/10/08 06:46:00;;;;;;;;;;;15.60;99.90;;;;;;5082540;28;19916;-77
2021/10/08 06:48:26;;;;;;;;;;;15.60;99.90;;;;;;5082669;28;20592;-77
2021/10/08 06:50:52;;;;;;;;;;;15.60;99.90;;;;;;5076374;28;19913;-77
2021/10/08 06:53:17;;;;;;;;;;;15.60;99.90;;;;;;5065501;28;20330;-77
2021/10/08 06:55:43;;;;;;;;;;;15.60;99.90;;;;;;5060832;28;19951;-77
2021/10/08 06:58:09;;;;;;;;;;;15.60;99.90;;;;;;5070442;28;19924;-77
2021/10/08 07:00:35;;;;;;;;;;;15.60;99.90;;;;;;5080777;28;19915;-77
2021/10/08 07:03:00;;;;;;;;;;;15.50;99.90;;;;;;5079373;28;19916;-77
2021/10/08 07:05:26;;;;;;;;;;;15.50;99.90;;;;;;5080813;28;20277;-80
2021/10/08 07:07:53;;;;;;;;;;;15.50;99.90;;;;;;5078709;28;20374;-78
2021/10/08 07:10:19;;;;;;;;;;;15.40;99.90;;;;;;5076750;28;20432;-77
2021/10/08 07:12:45;;;;;;;;;;;15.40;99.90;;;;;;5078070;28;20477;-77
2021/10/08 07:15:18;;;;;;;;;;;15.40;99.90;;;;;;5078838;28;19915;-77
2021/10/08 07:17:49;;;;;;;;;;;15.40;99.90;;;;;;5074098;28;19913;-77
2021/10/08 07:20:15;;;;;;;;;;;15.50;99.90;;;;;;5078286;28;19912;-78
2021/10/08 07:22:41;;;;;;;;;;;15.50;99.90;;;;;;5079982;28;19951;-77
2021/10/08 07:25:07;;;;;;;;;;;15.40;99.90;;;;;;5080423;28;19912;-77
2021/10/08 07:27:33;;;;;;;;;;;15.40;99.90;;;;;;5078882;28;20015;-75
2021/10/08 07:29:59;;;;;;;;;;;15.40;99.90;;;;;;5080055;28;19908;-76
2021/10/08 07:32:25;;;;;;;;;;;15.50;99.90;;;;;;5077649;28;19915;-76
2021/10/08 07:34:50;;;;;;;;;;;15.50;99.90;;;;;;5077381;28;19943;-76
2021/10/08 07:37:16;;;;;;;;;;;15.50;99.90;;;;;;5072581;28;19913;-75
2021/10/08 07:39:42;;;;;;;;;;;15.40;99.90;;;;;;5080028;28;19913;-75
2021/10/08 07:42:08;;;;;;;;;;;15.40;99.90;;;;;;5077638;28;20453;-75
2021/10/08 07:44:34;;;;;;;;;;;15.50;99.90;;;;;;5074447;28;20356;-76
2021/10/08 07:47:00;;;;;;;;;;;15.50;99.90;;;;;;5076315;28;19909;-74
2021/10/08 07:49:25;;;;;;;;;;;15.60;99.90;;;;;;5076405;28;19912;-76
2021/10/08 07:51:51;;;;;;;;;;;15.60;99.90;;;;;;5067045;28;20015;-75
2021/10/08 07:54:17;;;;;;;;;;;15.60;99.90;;;;;;5076732;28;19940;-73
2021/10/08 07:56:42;;;;;;;;;;;15.60;99.90;;;;;;5074245;28;19915;-75
2021/10/08 07:59:08;;;;;;;;;;;15.70;99.90;;;;;;5075622;28;19915;-73
2021/10/08 08:01:34;;;;;;;;;;;15.80;99.90;;;;;;5067673;28;19928;-73
2021/10/08 08:03:59;;;;;;;;;;;15.80;99.90;;;;;;5057941;28;19909;-73
2021/10/08 08:06:25;;;;;;;;;;;15.80;99.90;;;;;;5075923;28;19908;-73
2021/10/08 08:08:51;;;;;;;;;;;15.80;99.90;;;;;;5075782;28;20013;-75
2021/10/08 08:11:16;;;;;;;;;;;15.80;99.90;;;;;;5076242;28;19908;-73
2021/10/08 08:13:42;;;;;;;;;;;15.80;99.90;;;;;;5076285;28;19908;-76
2021/10/08 08:16:08;;;;;;;;;;;15.80;99.90;;;;;;5058209;28;19913;-76
2021/10/08 08:18:35;;;;;;;;;;;15.70;99.90;;;;;;5056520;28;19952;-75
2021/10/08 08:21:01;;;;;;;;;;;15.60;99.90;;;;;;5072629;28;19970;-75
2021/10/08 08:23:27;;;;;;;;;;;15.50;99.90;;;;;;5063187;28;20488;-77
2021/10/08 08:25:54;;;;;;;;;;;15.50;99.90;;;;;;5076378;28;19938;-76
2021/10/08 08:28:20;;;;;;;;;;;15.40;99.90;;;;;;5075728;28;19913;-75
2021/10/08 08:30:46;;;;;;;;;;;15.40;99.90;;;;;;5075343;28;19940;-75
2021/10/08 08:33:12;;;;;;;;;;;15.50;99.90;;;;;;5091937;28;19919;-75
2021/10/08 08:35:38;;;;;;;;;;;15.40;99.90;;;;;;5068234;28;19913;-75
2021/10/08 08:38:04;;;;;;;;;;;15.50;99.90;;;;;;5071668;28;19919;-76
2021/10/08 08:40:30;;;;;;;;;;;15.50;99.90;;;;;;5075870;28;19909;-76
2021/10/08 08:42:57;;;;;;;;;;;15.50;99.90;;;;;;5070238;28;19913;-75
2021/10/08 08:45:22;;;;;;;;;;;15.50;99.90;;;;;;5055687;28;19962;-75
2021/10/08 08:47:57;;;;;;;;;;;15.40;99.90;;;;;;5054543;28;19912;-76
2021/10/08 08:50:22;;;;;;;;;;;15.40;99.90;;;;;;5055765;28;20333;-75
2021/10/08 08:52:48;;;;;;;;;;;15.30;99.90;;;;;;5060186;28;19913;-77
2021/10/08 08:55:14;;;;;;;;;;;15.20;99.90;;;;;;5069703;28;20029;-76
2021/10/08 08:57:39;;;;;;;;;;;15.20;99.90;;;;;;5076812;28;19999;-76
2021/10/08 09:00:12;;;;;;;;;;;15.20;99.90;;;;;;5075282;28;19909;-76
2021/10/08 09:02:39;;;;;;;;;;;15.10;99.90;;;;;;5056620;28;19920;-76
2021/10/08 09:05:05;;;;;;;;;;;15.00;99.90;;;;;;5055716;28;19909;-76
2021/10/08 09:07:34;;;;;;;;;;;14.90;99.90;;;;;;5054857;28;19913;-77
2021/10/08 09:10:13;;;;;;;;;;;14.90;99.90;;;;;;5055743;28;19913;-75
2021/10/08 09:12:40;;;;;;;;;;;14.80;99.90;;;;;;5056280;28;19913;-76
2021/10/08 09:15:07;;;;;;;;;;;14.70;99.90;;;;;;5054811;28;19912;-77
2021/10/08 09:17:32;;;;;;;;;;;14.70;99.90;;;;;;5055988;28;19940;-76
2021/10/08 09:19:58;;;;;;;;;;;14.60;99.90;;;;;;5060655;28;19919;-76
2021/10/08 09:22:49;;;;;;;;;;;14.50;99.90;;;;;;5074697;28;20459;-76
2021/10/08 09:25:19;;;;;;;;;;;14.50;99.90;;;;;;5071115;28;19920;-76
2021/10/08 09:27:55;;;;;;;;;;;14.40;99.90;;;;;;5073481;28;20393;-76
2021/10/08 09:30:25;;;;;;;;;;;14.50;99.90;;;;;;5075252;28;19985;-76
2021/10/08 09:32:52;;;;;;;;;;;14.50;99.90;;;;;;5075252;28;19916;-76
2021/10/08 09:35:22;;;;;;;;;;;14.50;99.90;;;;;;5076035;28;19915;-77
2021/10/08 09:38:15;;;;;;;;;;;14.50;99.90;;;;;;5074810;28;19908;-76
2021/10/08 09:40:47;;;;;;;;;;;14.50;99.90;;;;;;5072525;28;19916;-76
2021/10/08 09:43:21;;;;;;;;;;;14.60;99.90;;;;;;5067583;28;19909;-76
2021/10/08 09:45:50;;;;;;;;;;;14.60;99.90;;;;;;5075403;28;19916;-77
2021/10/08 09:48:16;;;;;;;;;;;14.60;99.90;;;;;;5075048;28;19913;-76
2021/10/08 09:50:55;;;;;;;;;;;14.60;99.90;;;;;;5074831;28;20008;-76
2021/10/08 09:53:21;;;;;;;;;;;14.70;99.90;;;;;;5074967;28;19912;-76
2021/10/08 09:55:47;;;;;;;;;;;14.80;99.90;;;;;;5073724;28;19908;-76
2021/10/08 09:58:13;;;;;;;;;;;14.80;99.90;;;;;;5074621;28;19962;-76
2021/10/08 10:00:38;;;;;;;;;;;14.90;99.90;;;;;;5064215;28;19913;-76
2021/10/08 10:03:04;;;;;;;;;;;15.00;99.90;;;;;;5073551;28;20011;-75
2021/10/08 10:05:30;;;;;;;;;;;15.00;99.90;;;;;;5075141;28;20278;-75
2021/10/08 10:07:56;;;;;;;;;;;15.20;99.90;;;;;;5074382;28;19930;-75
2021/10/08 10:10:23;;;;;;;;;;;15.10;99.90;;;;;;5074800;28;19923;-75
2021/10/08 10:12:49;;;;;;;;;;;15.20;99.90;;;;;;5075171;28;19909;-76
2021/10/08 10:15:15;;;;;;;;;;;15.20;99.90;;;;;;5074874;28;19915;-76
2021/10/08 10:17:41;;;;;;;;;;;15.20;99.90;;;;;;5074622;28;19908;-76
2021/10/08 10:20:11;;;;;;;;;;;15.30;99.90;;;;;;5062949;28;19967;-76
2021/10/08 10:22:37;;;;;;;;;;;15.30;99.90;;;;;;5054029;28;19916;-75
2021/10/08 10:25:03;;;;;;;;;;;15.30;99.90;;;;;;5054403;28;20435;-76
2021/10/08 10:27:29;;;;;;;;;;;15.40;99.90;;;;;;5068181;28;19934;-76
2021/10/08 10:29:55;;;;;;;;;;;15.50;99.90;;;;;;5075363;28;19916;-76
2021/10/08 10:32:21;;;;;;;;;;;15.60;99.90;;;;;;5078641;28;19961;-76
2021/10/08 10:34:48;;;;;;;;;;;15.50;99.90;;;;;;5077752;28;19939;-76
2021/10/08 10:37:34;;;;;;;;;;;15.70;99.90;;;;;;5071218;28;20273;-76
2021/10/08 10:40:19;;;;;;;;;;;15.70;99.90;;;;;;5063993;28;19913;-75
2021/10/08 10:42:46;;;;;;;;;;;15.70;99.90;;;;;;5070955;28;19915;-80
2021/10/08 10:45:17;;;;;;;;;;;15.70;99.90;;;;;;5069433;28;19920;-75
2021/10/08 10:47:46;;;;;;;;;;;15.70;99.90;;;;;;5069336;28;20444;-76
2021/10/08 10:50:27;;;;;;;;;;;15.70;99.90;;;;;;5072962;28;20365;-76
2021/10/08 10:52:55;;;;;;;;;;;15.70;99.90;;;;;;5071899;28;19916;-75
2021/10/08 10:55:22;;;;;;;;;;;15.90;99.90;;;;;;5073873;28;20489;-78
2021/10/08 10:57:49;;;;;;;;;;;16.00;99.90;;;;;;5070875;28;19920;-75
2021/10/08 11:00:36;;;;;;;;;;;16.10;99.90;;;;;;5088210;28;19995;-76
2021/10/08 11:03:02;;;;;;;;;;;16.40;99.90;;;;;;5072057;28;19908;-76
2021/10/08 11:05:29;;;;;;;;;;;16.60;99.90;;;;;;5060279;28;20346;-78
2021/10/08 11:08:12;;;;;;;;;;;16.60;99.90;;;;;;5053573;28;19909;-76
2021/10/08 11:10:44;;;;;;;;;;;16.50;99.90;;;;;;5053285;28;19944;-76
2021/10/08 11:13:19;;;;;;;;;;;16.60;99.90;;;;;;5052251;28;19913;-75
2021/10/08 11:15:58;;;;;;;;;;;16.60;99.90;;;;;;5051775;28;20000;-74
2021/10/08 11:18:34;;;;;;;;;;;16.50;99.90;;;;;;5055931;28;19909;-76
2021/10/08 11:21:02;;;;;;;;;;;16.40;99.90;;;;;;5057460;28;19916;-76
2021/10/08 11:23:33;;;;;;;;;;;16.40;99.90;;;;;;5057191;28;19923;-75
2021/10/08 11:26:00;;;;;;;;;;;16.40;99.90;;;;;;5063315;28;19912;-76
2021/10/08 11:28:27;;;;;;;;;;;16.40;99.90;;;;;;5073701;28;19917;-76
2021/10/08 11:30:53;;;;;;;;;;;16.40;99.90;;;;;;5077497;28;19912;-76
2021/10/08 11:33:29;;;;;;;;;;;16.30;99.90;;;;;;5077138;28;19956;-76
2021/10/08 11:35:55;;;;;;;;;;;16.20;99.90;;;;;;5076212;28;19987;-75
2021/10/08 11:38:21;;;;;;;;;;;15.90;99.90;;;;;;5073317;28;19913;-75
2021/10/08 11:40:47;;;;;;;;;;;16.10;99.90;;;;;;5063266;28;19932;-75
2021/10/08 11:43:35;;;;;;;;;;;16.20;99.90;;;;;;5075921;28;19935;-74
2021/10/08 11:46:15;;;;;;;;;;;16.10;99.90;;;;;;5078540;28;19917;-76
2021/10/08 11:48:47;;;;;;;;;;;16.10;99.90;;;;;;5076539;28;19916;-75
2021/10/08 11:51:13;;;;;;;;;;;16.10;99.90;;;;;;5083152;28;19917;-75
2021/10/08 11:53:46;;;;;;;;;;;16.10;99.90;;;;;;5074538;28;19935;-75
2021/10/08 11:56:13;;;;;;;;;;;16.00;99.90;;;;;;5074329;28;19999;-75
2021/10/08 11:58:39;;;;;;;;;;;16.10;99.90;;;;;;5074020;28;20007;-75
2021/10/08 12:01:04;;;;;;;;;;;16.10;99.90;;;;;;5076341;28;19952;-75
2021/10/08 12:03:38;;;;;;;;;;;16.20;99.90;;;;;;5076428;28;19991;-75
2021/10/08 12:06:05;;;;;;;;;;;16.20;99.90;;;;;;5077200;28;19908;-76
2021/10/08 12:08:33;;;;;;;;;;;16.10;99.90;;;;;;5074727;28;19917;-75
2021/10/08 12:11:00;;;;;;;;;;;16.20;99.90;;;;;;5076858;28;19913;-78
2021/10/08 12:13:41;;;;;;;;;;;16.10;99.90;;;;;;5068814;28;19912;-75
2021/10/08 12:16:07;;;;;;;;;;;16.10;99.90;;;;;;5073351;28;19927;-76
2021/10/08 12:18:33;;;;;;;;;;;16.00;99.90;;;;;;5078731;28;20050;-76
2021/10/08 12:21:13;;;;;;;;;;;16.00;99.90;;;;;;5076339;28;20388;-76
2021/10/08 12:23:39;;;;;;;;;;;16.10;99.90;;;;;;5078908;28;20370;-76
2021/10/08 12:26:05;;;;;;;;;;;16.30;99.90;;;;;;5079703;28;19995;-76
2021/10/08 12:28:30;;;;;;;;;;;16.20;99.90;;;;;;5081593;28;20396;-75
2021/10/08 12:31:01;;;;;;;;;;;16.30;99.90;;;;;;5071678;28;19919;-75
2021/10/08 12:33:29;;;;;;;;;;;16.40;99.90;;;;;;5084806;28;19912;-75
2021/10/08 12:36:13;;;;;;;;;;;16.50;99.90;;;;;;5080006;28;19912;-74
2021/10/08 12:38:57;;;;;;;;;;;16.60;99.90;;;;;;5076131;28;20371;-75
2021/10/08 12:41:25;;;;;;;;;;;16.70;99.90;;;;;;5075715;28;19935;-76
2021/10/08 12:44:01;;;;;;;;;;;16.80;99.90;;;;;;5075087;28;20175;-75
2021/10/08 12:46:33;;;;;;;;;;;16.70;99.90;;;;;;5084631;28;19912;-74
2021/10/08 12:48:59;;;;;;;;;;;16.60;99.90;;;;;;5077823;28;19932;-77
2021/10/08 12:51:25;;;;;;;;;;;16.70;99.90;;;;;;5079976;28;19921;-75
2021/10/08 12:54:09;;;;;;;;;;;16.60;99.90;;;;;;5082918;28;19928;-74
2021/10/08 12:56:35;;;;;;;;;;;16.60;99.90;;;;;;5079303;28;19913;-75
2021/10/08 12:59:01;;;;;;;;;;;16.60;99.90;;;;;;5074982;28;19955;-76
2021/10/08 13:01:27;;;;;;;;;;;16.70;99.90;;;;;;5074780;28;19912;-75
2021/10/08 13:03:57;;;;;;;;;;;16.70;99.90;;;;;;5079408;28;19912;-75
2021/10/08 13:06:24;;;;;;;;;;;16.70;99.90;;;;;;5075974;28;19912;-76
2021/10/08 13:09:04;;;;;;;;;;;16.80;99.90;;;;;;5075900;28;19916;-75
2021/10/08 13:11:55;;;;;;;;;;;16.70;99.90;;;;;;5070821;28;20534;-76
2021/10/08 13:14:34;;;;;;;;;;;16.70;99.90;;;;;;5073604;28;19916;-76
2021/10/08 13:17:18;;;;;;;;;;;16.70;99.90;;;;;;5086860;28;19913;-75
2021/10/08 13:19:52;;;;;;;;;;;16.60;99.90;;;;;;5074099;28;19951;-75
2021/10/08 13:22:24;;;;;;;;;;;16.80;99.90;;;;;;5069404;28;19919;-76
2021/10/08 13:24:50;;;;;;;;;;;16.80;99.90;;;;;;5073699;28;19981;-76
2021/10/08 13:27:23;;;;;;;;;;;16.70;99.90;;;;;;5074252;28;20003;-76
2021/10/08 13:29:49;;;;;;;;;;;16.80;99.90;;;;;;5071986;28;19917;-75
2021/10/08 13:32:22;;;;;;;;;;;16.90;99.90;;;;;;5081278;28;20003;-74
2021/10/08 13:34:55;;;;;;;;;;;17.10;99.90;;;;;;5076140;28;19920;-75
2021/10/08 13:37:20;;;;;;;;;;;17.10;99.90;;;;;;5070705;28;20574;-75
2021/10/08 13:39:46;;;;;;;;;;;17.00;99.90;;;;;;5075453;28;19919;-75
2021/10/08 13:42:15;;;;;;;;;;;17.10;99.90;;;;;;5079630;28;19998;-76
2021/10/08 13:44:43;;;;;;;;;;;17.00;99.90;;;;;;5073790;28;20405;-76
2021/10/08 13:47:15;;;;;;;;;;;16.80;99.90;;;;;;5081134;28;19921;-75
2021/10/08 13:49:41;;;;;;;;;;;16.80;99.90;;;;;;5083127;28;20344;-75
2021/10/08 13:52:10;;;;;;;;;;;16.90;99.90;;;;;;5077248;28;19921;-76
2021/10/08 13:54:36;;;;;;;;;;;17.00;99.90;;;;;;5074751;28;19963;-76
2021/10/08 13:57:05;;;;;;;;;;;17.00;99.90;;;;;;5075749;28;19912;-76
2021/10/08 13:59:33;;;;;;;;;;;16.90;99.90;;;;;;5078286;28;19931;-75
2021/10/08 14:02:04;;;;;;;;;;;17.00;99.90;;;;;;5069346;28;19912;-76
2021/10/08 14:04:50;;;;;;;;;;;17.00;99.90;;;;;;5074179;28;19935;-76
2021/10/08 14:07:36;;;;;;;;;;;17.00;99.90;;;;;;5076990;28;19995;-75
2021/10/08 14:12:29;;;;;;;;;;;16.70;99.90;;;;;;5079086;28;19908;-76
2021/10/08 14:14:58;;;;;;;;;;;16.80;99.90;;;;;;5073647;28;19909;-76
2021/10/08 14:17:27;;;;;;;;;;;16.80;99.90;;;;;;5078533;28;19996;-76
2021/10/08 14:19:52;;;;;;;;;;;16.60;99.90;;;;;;5077741;28;19919;-78
2021/10/08 14:22:18;;;;;;;;;;;16.60;99.90;;;;;;5076676;28;19912;-76
2021/10/08 14:24:44;;;;;;;;;;;16.40;99.90;;;;;;5076140;28;19923;-76
2021/10/08 14:27:09;;;;;;;;;;;16.40;99.90;;;;;;5074580;28;19967;-75